Time;durP1;ratioP1;P1;durP2;ratioP2;P2;SDS_P1;SDS_P2;PMS_P1;PMS_P2;Temp;Humidity;BMP_temperature;BMP_pressure;BME280_temperature;BME280_humidity;BME280_pressure;Samples;Min_cycle;Max_cycle;Signal;HPM_P1;HPM_P2
2022/07/06 00:01:45;;;;;;;3.30;1.50;;;;;;;22.15;38.14;98360.56;8417770;28;20234;-79
2022/07/06 00:05:48;;;;;;;2.00;1.50;;;;;;;22.15;38.29;98377.22;8418552;28;20234;-79
2022/07/06 00:09:51;;;;;;;4.83;2.07;;;;;;;22.05;38.31;98371.91;8417787;28;20244;-79
2022/07/06 00:13:56;;;;;;;3.17;1.93;;;;;;;22.00;38.85;98371.44;8417917;28;20249;-79
2022/07/06 00:18:00;;;;;;;6.20;1.90;;;;;;;22.04;38.39;98375.47;8418086;28;20230;-79
2022/07/06 00:22:03;;;;;;;3.17;1.93;;;;;;;21.89;38.94;98374.16;8417843;28;20234;-78
2022/07/06 00:26:06;;;;;;;4.67;1.70;;;;;;;21.81;39.16;98376.59;8417835;28;20435;-78
2022/07/06 00:30:09;;;;;;;3.53;1.90;;;;;;;21.83;39.56;98382.59;8417495;28;20234;-79
2022/07/06 00:34:14;;;;;;;2.30;1.80;;;;;;;21.78;39.50;98382.97;8417265;28;20234;-79
2022/07/06 00:38:17;;;;;;;3.13;1.60;;;;;;;21.83;39.54;98385.22;8417363;28;20429;-79
2022/07/06 00:42:20;;;;;;;4.17;2.00;;;;;;;21.78;39.80;98390.03;8417193;28;20236;-79
2022/07/06 00:46:27;;;;;;;9.87;1.83;;;;;;;21.74;39.55;98383.34;8416503;28;20399;-78
2022/07/06 00:50:31;;;;;;;7.00;1.60;;;;;;;21.70;39.54;98389.84;8416703;28;20230;-78
2022/07/06 00:54:35;;;;;;;3.53;1.63;;;;;;;21.63;39.73;98390.38;8416638;28;20234;-78
2022/07/06 00:58:38;;;;;;;3.30;1.87;;;;;;;21.66;39.98;98390.09;8416269;28;20238;-78
2022/07/06 01:02:41;;;;;;;5.90;1.93;;;;;;;21.64;39.70;98389.38;8416516;28;20231;-78
2022/07/06 01:06:46;;;;;;;3.40;2.03;;;;;;;21.68;40.04;98392.59;8416229;28;20236;-78
2022/07/06 01:10:49;;;;;;;5.37;1.73;;;;;;;21.71;39.66;98395.00;8416062;28;20413;-78
2022/07/06 01:14:52;;;;;;;2.23;1.60;;;;;;;21.67;39.64;98393.59;8415871;28;20234;-78
2022/07/06 01:18:54;;;;;;;4.47;1.90;;;;;;;21.67;39.59;98393.59;8415264;28;20243;-78
2022/07/06 01:23:00;;;;;;;5.43;1.77;;;;;;;21.56;40.03;98386.56;8415599;28;20237;-78
2022/07/06 01:27:03;;;;;;;3.20;1.90;;;;;;;21.60;39.73;98392.41;8415627;28;20427;-78
2022/07/06 01:31:06;;;;;;;3.90;1.90;;;;;;;21.57;39.83;98392.66;8415436;28;20224;-79
2022/07/06 01:35:10;;;;;;;5.17;1.90;;;;;;;21.53;39.97;98380.69;8415436;28;20244;-78
2022/07/06 01:39:15;;;;;;;3.07;1.90;;;;;;;21.51;40.43;98378.19;8415272;28;20223;-79
2022/07/06 01:43:18;;;;;;;6.77;1.67;;;;;;;21.53;40.30;98383.34;8415070;28;20250;-79
2022/07/06 01:47:21;;;;;;;4.50;2.00;;;;;;;21.50;40.54;98379.16;8414935;28;20226;-79
2022/07/06 01:51:24;;;;;;;3.27;2.00;;;;;;;21.50;40.38;98376.53;8414494;28;20234;-78
2022/07/06 01:55:28;;;;;;;2.73;1.87;;;;;;;21.55;40.25;98376.13;8414390;28;20244;-78
2022/07/06 01:59:31;;;;;;;3.03;1.80;;;;;;;21.45;40.26;98373.44;8414520;28;20237;-79
2022/07/06 02:03:34;;;;;;;4.80;1.90;;;;;;;21.48;40.07;98365.28;8414445;28;20265;-78
2022/07/06 02:07:37;;;;;;;3.80;1.80;;;;;;;21.43;40.16;98372.69;8414403;28;20599;-78
2022/07/06 02:11:41;;;;;;;3.23;1.70;;;;;;;21.37;40.70;98378.47;8414284;28;20298;-78
2022/07/06 02:15:44;;;;;;;5.37;2.00;;;;;;;21.29;41.58;98382.56;8413849;28;20238;-78
2022/07/06 02:19:47;;;;;;;4.13;1.97;;;;;;;21.22;41.73;98389.28;8414138;28;20224;-79
2022/07/06 02:23:50;;;;;;;4.33;2.10;;;;;;;21.13;42.15;98383.94;8414029;28;20234;-79
2022/07/06 02:27:54;;;;;;;5.80;2.00;;;;;;;21.07;42.19;98367.66;8413966;28;20394;-79
2022/07/06 02:31:57;;;;;;;5.60;1.90;;;;;;;21.05;41.84;98382.75;8413551;28;20228;-78
2022/07/06 02:36:00;;;;;;;4.63;2.10;;;;;;;21.10;41.79;98387.66;8413851;28;20476;-79
2022/07/06 02:40:02;;;;;;;3.40;2.00;;;;;;;21.06;42.15;98388.88;8413809;28;20412;-78
2022/07/06 02:44:07;;;;;;;2.97;1.90;;;;;;;21.01;42.27;98383.16;8413771;28;20239;-78
2022/07/06 02:48:10;;;;;;;4.70;2.10;;;;;;;20.96;42.43;98377.41;8413664;28;20226;-78
2022/07/06 02:52:12;;;;;;;4.23;1.80;;;;;;;20.96;42.61;98387.94;8413635;28;20227;-78
2022/07/06 02:56:15;;;;;;;6.63;2.00;;;;;;;20.86;42.87;98387.84;8413556;28;20256;-78
2022/07/06 03:00:20;;;;;;;3.17;2.13;;;;;;;20.83;42.99;98394.19;8413405;28;20236;-79
2022/07/06 03:04:23;;;;;;;5.70;2.50;;;;;;;20.79;42.59;98376.97;8412996;28;20231;-79
2022/07/06 03:08:26;;;;;;;6.70;2.13;;;;;;;20.77;42.80;98385.94;8413299;28;20559;-78
2022/07/06 03:12:28;;;;;;;5.37;2.07;;;;;;;20.74;43.04;98396.72;8413118;28;20238;-78
2022/07/06 03:16:33;;;;;;;3.77;2.10;;;;;;;20.71;42.91;98403.03;8413022;28;20246;-79
2022/07/06 03:20:35;;;;;;;7.10;2.40;;;;;;;20.73;42.64;98403.75;8413167;28;20234;-79
2022/07/06 03:24:38;;;;;;;4.37;2.03;;;;;;;20.73;42.75;98406.41;8413153;28;20401;-78
2022/07/06 03:28:41;;;;;;;2.97;2.00;;;;;;;20.66;42.85;98400.78;8413012;28;20235;-78
2022/07/06 03:32:45;;;;;;;4.03;2.03;;;;;;;20.68;42.77;98398.88;8413009;28;20249;-78
2022/07/06 03:36:48;;;;;;;4.87;2.10;;;;;;;20.61;42.73;98396.84;8412804;28;20227;-79
2022/07/06 03:40:51;;;;;;;4.60;2.00;;;;;;;20.61;43.19;98394.22;8412844;28;20235;-79
2022/07/06 03:44:54;;;;;;;5.27;2.10;;;;;;;20.55;43.17;98408.66;8417022;28;20234;-78
2022/07/06 03:48:58;;;;;;;5.13;2.17;;;;;;;20.53;43.13;98405.31;8418686;28;20239;-78
2022/07/06 03:53:01;;;;;;;7.37;2.00;;;;;;;20.47;43.67;98408.44;8418838;28;20240;-78
2022/07/06 03:57:04;;;;;;;3.27;2.00;;;;;;;20.45;43.26;98415.59;8418591;28;20236;-78
2022/07/06 04:01:07;;;;;;;5.83;2.37;;;;;;;20.42;43.26;98407.94;8418338;28;20435;-79
2022/07/06 04:05:11;;;;;;;5.63;2.30;;;;;;;20.56;43.34;98406.84;8418273;28;20234;-79
2022/07/06 04:09:14;;;;;;;4.87;2.20;;;;;;;20.52;43.21;98408.88;8418109;28;20421;-79
2022/07/06 04:13:16;;;;;;;4.00;2.03;;;;;;;20.57;42.80;98416.44;8418173;28;20234;-80
2022/07/06 04:21:41;;;;;;;4.90;2.20;;;;;;;20.57;42.98;98424.34;8417719;28;20227;-79
2022/07/06 04:25:44;;;;;;;6.60;2.17;;;;;;;20.56;43.41;98427.91;8417912;28;20254;-79
2022/07/06 04:29:47;;;;;;;6.50;2.27;;;;;;;20.63;43.17;98426.50;8417524;28;20234;-79
2022/07/06 04:33:49;;;;;;;6.03;2.23;;;;;;;20.74;42.96;98428.31;8417651;28;20235;-79
2022/07/06 04:37:53;;;;;;;8.00;2.20;;;;;;;20.69;43.39;98444.44;8417458;28;20244;-80
2022/07/06 04:41:56;;;;;;;4.03;2.20;;;;;;;20.74;43.59;98444.09;8417385;28;20739;-79
2022/07/06 04:46:00;;;;;;;6.73;2.20;;;;;;;20.84;43.87;98451.13;8416969;28;20223;-79
2022/07/06 04:50:04;;;;;;;3.77;2.00;;;;;;;20.86;43.89;98454.47;8417031;28;20229;-79
2022/07/06 04:54:08;;;;;;;5.70;2.37;;;;;;;20.92;44.37;98458.41;8392071;28;20531;-79
2022/07/06 04:58:11;;;;;;;4.53;2.07;;;;;;;20.82;44.75;98455.69;8383492;28;20228;-79
2022/07/06 05:02:14;;;;;;;6.00;2.23;;;;;;;21.06;44.50;98463.44;8383426;28;20228;-79
2022/07/06 05:06:18;;;;;;;8.57;2.23;;;;;;;21.21;43.15;98471.06;8383404;28;20231;-78
2022/07/06 05:10:22;;;;;;;5.93;2.07;;;;;;;21.22;43.10;98472.75;8383199;28;20542;-79
2022/07/06 05:14:25;;;;;;;3.70;2.03;;;;;;;21.27;43.28;98474.06;8383673;28;20227;-79
2022/07/06 05:18:28;;;;;;;2.87;1.80;;;;;;;21.26;43.00;98484.69;8384682;28;20278;-80
2022/07/06 05:22:31;;;;;;;4.37;2.10;;;;;;;21.26;41.31;98489.97;8383316;28;20235;-79
2022/07/06 05:26:35;;;;;;;4.23;1.57;;;;;;;21.27;41.24;98492.50;8382934;28;20254;-80
2022/07/06 05:30:38;;;;;;;2.53;1.70;;;;;;;21.40;41.32;98489.72;8382799;28;20423;-79
2022/07/06 05:34:41;;;;;;;3.67;1.80;;;;;;;21.50;40.45;98491.63;8382580;28;20235;-79
2022/07/06 05:38:44;;;;;;;8.20;2.00;;;;;;;21.58;40.93;98494.47;8382348;28;20227;-79
2022/07/06 05:42:48;;;;;;;4.90;1.90;;;;;;;21.58;40.46;98490.03;8382489;28;20236;-79
2022/07/06 05:46:51;;;;;;;6.33;1.60;;;;;;;21.80;39.97;98497.03;8410759;28;20242;-79
2022/07/06 05:50:53;;;;;;;5.90;1.83;;;;;;;21.65;40.05;98490.38;8414885;28;20225;-79
2022/07/06 05:54:56;;;;;;;5.30;1.73;;;;;;;21.68;39.81;98495.38;8414844;28;20243;-79
2022/07/06 05:59:00;;;;;;;9.30;2.00;;;;;;;21.73;40.53;98495.88;8414695;28;20233;-79
2022/07/06 06:03:03;;;;;;;5.87;2.13;;;;;;;21.93;40.23;98496.84;8414689;28;20316;-79
2022/07/06 06:07:06;;;;;;;3.67;1.90;;;;;;;22.11;39.37;98491.03;8414191;28;20238;-79
2022/07/06 06:11:09;;;;;;;2.73;1.70;;;;;;;22.11;38.88;98499.75;8414406;28;20235;-79
2022/07/06 06:15:15;;;;;;;3.83;1.67;;;;;;;22.13;40.09;98494.38;8414232;28;20436;-80
2022/07/06 06:19:18;;;;;;;6.13;1.80;;;;;;;22.39;39.94;98502.75;8414178;28;20230;-79
2022/07/06 06:23:20;;;;;;;4.10;1.80;;;;;;;22.53;39.89;98504.22;8414102;28;20229;-79
2022/07/06 06:27:23;;;;;;;4.03;1.97;;;;;;;22.56;39.35;98511.88;8413477;28;20230;-78
2022/07/06 06:31:27;;;;;;;5.50;1.50;;;;;;;22.65;38.71;98501.34;8413930;28;20548;-78
2022/07/06 06:35:30;;;;;;;2.17;1.60;;;;;;;22.74;38.39;98505.03;8413808;28;20241;-79
2022/07/06 06:39:33;;;;;;;4.73;1.70;;;;;;;22.91;37.69;98508.84;8413702;28;20234;-79
2022/07/06 06:43:36;;;;;;;5.50;1.67;;;;;;;22.90;38.44;98499.25;8413658;28;20233;-78
2022/07/06 06:47:40;;;;;;;5.47;1.87;;;;;;;22.96;38.40;98497.88;8413565;28;20241;-78
2022/07/06 06:51:43;;;;;;;3.37;1.73;;;;;;;23.04;37.88;98500.72;8413637;28;20341;-79
2022/07/06 06:55:46;;;;;;;5.33;1.80;;;;;;;23.17;38.22;98506.63;8413670;28;20417;-79
2022/07/06 06:59:49;;;;;;;5.90;1.60;;;;;;;23.27;37.94;98504.00;8413631;28;20411;-78
2022/07/06 07:03:54;;;;;;;6.87;1.63;;;;;;;23.19;37.84;98507.31;8413481;28;20233;-79
2022/07/06 07:07:58;;;;;;;6.00;1.80;;;;;;;23.48;37.56;98509.19;8412909;28;20231;-78
2022/07/06 07:12:07;;;;;;;3.83;1.60;;;;;;;23.67;37.12;98502.25;8413587;28;20627;-78
2022/07/06 07:16:09;;;;;;;5.37;1.77;;;;;;;23.76;37.72;98506.69;8413190;28;20235;-78
2022/07/06 07:20:14;;;;;;;3.97;1.40;;;;;;;23.98;36.27;98505.63;8418453;28;20219;-78
2022/07/06 07:24:17;;;;;;;2.90;1.40;;;;;;;24.22;36.14;98505.19;8419990;28;20226;-79
2022/07/06 07:28:20;;;;;;;4.57;1.70;;;;;;;24.46;35.42;98506.53;8419346;28;20238;-79
2022/07/06 07:32:23;;;;;;;3.17;1.83;;;;;;;24.34;35.84;98508.50;8419109;28;20501;-78
2022/07/06 07:36:27;;;;;;;2.30;1.43;;;;;;;24.57;35.55;98501.09;8419195;28;20239;-78
2022/07/06 07:40:30;;;;;;;7.37;1.60;;;;;;;24.94;34.98;98506.41;8419390;28;20233;-78
2022/07/06 07:44:33;;;;;;;5.60;1.50;;;;;;;25.08;34.24;98510.38;8419184;28;20230;-79
2022/07/06 07:48:36;;;;;;;2.80;1.50;;;;;;;25.52;33.71;98501.78;8418762;28;20231;-79
2022/07/06 07:52:40;;;;;;;4.37;1.50;;;;;;;25.48;33.22;98511.03;8418714;28;20239;-78
2022/07/06 07:56:43;;;;;;;5.47;1.80;;;;;;;25.74;32.60;98500.50;8418850;28;20352;-79
2022/07/06 08:00:45;;;;;;;3.57;1.50;;;;;;;25.84;32.62;98506.56;8418638;28;20225;-79
2022/07/06 08:04:49;;;;;;;4.60;1.40;;;;;;;26.20;32.63;98511.88;8418449;28;20245;-79
2022/07/06 08:08:53;;;;;;;4.73;1.60;;;;;;;26.32;32.32;98501.84;8418146;28;20230;-79
2022/07/06 08:12:56;;;;;;;2.97;1.53;;;;;;;26.67;31.34;98508.91;8418301;28;20223;-79
2022/07/06 08:16:59;;;;;;;3.50;1.60;;;;;;;26.91;33.99;98508.19;8418066;28;20230;-79
2022/07/06 08:21:02;;;;;;;5.53;1.40;;;;;;;27.05;32.90;98504.09;8418160;28;20230;-80
2022/07/06 08:25:26;;;;;;;6.50;1.70;;;;;;;26.83;30.82;98510.81;8417302;28;20234;-80
2022/07/06 08:29:29;;;;;;;3.27;1.20;;;;;;;27.36;29.80;98502.72;8417330;28;20233;-80
2022/07/06 08:33:32;;;;;;;2.40;1.27;;;;;;;27.35;30.17;98503.72;8417696;28;20511;-80
2022/07/06 08:37:35;;;;;;;5.10;1.30;;;;;;;27.13;28.88;98503.31;8417390;28;20514;-82
2022/07/06 08:41:43;;;;;;;1.73;1.30;;;;;;;27.30;29.00;98505.06;8417504;28;20527;-80
2022/07/06 08:45:46;;;;;;;2.90;1.30;;;;;;;27.57;28.36;98513.75;8417073;28;20343;-80
2022/07/06 08:49:49;;;;;;;2.30;1.07;;;;;;;27.60;28.66;98510.75;8414027;28;20239;-79
2022/07/06 08:53:52;;;;;;;3.80;1.53;;;;;;;27.76;27.76;98507.31;8415643;28;20230;-79
2022/07/06 08:57:57;;;;;;;4.40;1.50;;;;;;;27.40;27.95;98512.88;8413658;28;20392;-78
2022/07/06 09:02:00;;;;;;;8.70;1.87;;;;;;;27.78;28.06;98502.66;8417215;28;20250;-77
2022/07/06 09:06:04;;;;;;;4.57;1.40;;;;;;;28.04;27.07;98509.66;8417109;28;20235;-80
2022/07/06 09:10:08;;;;;;;2.77;1.20;;;;;;;28.21;27.15;98498.00;8416001;28;20335;-81
2022/07/06 09:14:13;;;;;;;3.00;1.17;;;;;;;28.18;26.91;98500.16;8416115;28;20422;-79
2022/07/06 09:18:15;;;;;;;4.37;1.57;;;;;;;27.53;27.54;98500.94;8416019;28;20234;-78
2022/07/06 09:22:36;;;;;;;7.37;1.60;;;;;;;28.30;27.77;98503.34;8415824;28;20236;-78
2022/07/06 09:26:40;;;;;;;4.87;1.43;;;;;;;28.25;28.15;98501.16;8415354;28;20423;-78
2022/07/06 09:30:45;;;;;;;4.70;1.67;;;;;;;27.50;28.92;98500.28;8415680;28;20392;-78
2022/07/06 09:34:48;;;;;;;3.23;1.60;;;;;;;27.78;28.73;98500.00;8415566;28;20225;-77
2022/07/06 09:38:51;;;;;;;3.57;1.50;;;;;;;28.38;27.51;98500.66;8415248;28;20232;-79
2022/07/06 09:43:08;;;;;;;2.83;1.50;;;;;;;28.01;27.69;98502.03;8414603;28;20224;-78
2022/07/06 09:47:14;;;;;;;3.90;1.40;;;;;;;27.44;29.59;98513.41;8415128;28;20230;-77
2022/07/06 09:51:17;;;;;;;3.43;1.50;;;;;;;26.57;30.34;98523.25;8415111;28;20232;-77
2022/07/06 09:55:27;;;;;;;2.53;1.30;;;;;;;27.91;28.27;98512.81;8414355;28;20228;-79
2022/07/06 09:59:31;;;;;;;3.27;1.43;;;;;;;28.43;27.29;98512.47;8414228;28;20237;-79
2022/07/06 10:03:35;;;;;;;3.63;1.50;;;;;;;28.93;26.35;98505.22;8414675;28;20240;-79
2022/07/06 10:07:38;;;;;;;5.70;1.60;;;;;;;28.40;27.42;98511.97;8414319;28;20350;-80
2022/07/06 10:11:42;;;;;;;3.60;1.50;;;;;;;28.17;28.53;98520.66;8414388;28;20232;-79
2022/07/06 10:15:45;;;;;;;3.80;1.60;;;;;;;27.84;29.70;98503.81;8414434;28;20237;-78
2022/07/06 10:19:50;;;;;;;3.93;1.50;;;;;;;27.69;28.76;98514.28;8414238;28;20513;-78
2022/07/06 10:23:53;;;;;;;2.93;1.40;;;;;;;27.85;28.58;98514.31;8413994;28;20228;-79
2022/07/06 10:27:56;;;;;;;7.93;1.90;;;;;;;27.50;28.16;98510.09;8414781;28;20232;-79
2022/07/06 10:31:59;;;;;;;2.10;1.23;;;;;;;27.29;29.78;98516.66;8414900;28;20399;-79
2022/07/06 10:36:05;;;;;;;4.27;1.50;;;;;;;26.85;30.47;98511.47;8414493;28;20227;-79
2022/07/06 10:44:29;;;;;;;5.63;1.60;;;;;;;26.21;31.15;98513.53;8413062;28;20314;-79
2022/07/06 10:48:35;;;;;;;5.83;1.87;;;;;;;27.58;29.07;98506.59;8413707;28;20233;-79
2022/07/06 10:52:53;;;;;;;3.00;1.37;;;;;;;28.68;26.25;98501.81;8414158;28;20233;-79
2022/07/06 10:56:55;;;;;;;4.30;1.57;;;;;;;28.67;26.62;98508.13;8413560;28;20548;-77
2022/07/06 11:00:58;;;;;;;3.50;1.60;;;;;;;28.50;28.38;98503.81;8414349;28;20396;-79
2022/07/06 11:05:01;;;;;;;5.00;1.50;;;;;;;28.00;27.70;98511.00;8414165;28;20229;-78
2022/07/06 11:09:07;;;;;;;3.30;1.47;;;;;;;28.92;26.48;98503.56;8413642;28;20240;-79
2022/07/06 11:13:26;;;;;;;3.07;1.40;;;;;;;29.26;25.08;98502.44;8413411;28;20240;-78
2022/07/06 11:17:29;;;;;;;5.13;1.60;;;;;;;28.08;25.55;98506.53;8413175;28;20240;-77
2022/07/06 11:21:35;;;;;;;4.73;1.50;;;;;;;27.56;27.99;98500.63;8413143;28;20240;-77
2022/07/06 11:25:40;;;;;;;8.20;1.50;;;;;;;27.40;27.62;98502.25;8412910;28;20238;-78
2022/07/06 11:29:44;;;;;;;5.47;1.40;;;;;;;27.09;28.42;98501.94;8412835;28;20232;-79
2022/07/06 11:33:48;;;;;;;4.00;1.23;;;;;;;27.16;28.25;98499.50;8413003;28;20239;-79
2022/07/06 11:37:51;;;;;;;3.17;1.10;;;;;;;27.11;28.84;98495.50;8412702;28;20270;-80
2022/07/06 11:41:57;;;;;;;3.23;1.30;;;;;;;28.33;26.42;98501.19;8412727;28;20242;-80
2022/07/06 11:46:00;;;;;;;3.00;1.00;;;;;;;28.78;25.23;98490.94;8412956;28;20224;-80
2022/07/06 11:50:04;;;;;;;3.00;1.20;;;;;;;28.76;25.42;98491.09;8412643;28;20239;-80
2022/07/06 11:54:10;;;;;;;5.30;1.00;;;;;;;28.82;24.30;98498.41;8412422;28;20238;-81
2022/07/06 11:58:15;;;;;;;3.80;1.47;;;;;;;29.52;23.77;98485.28;8411467;28;20559;-80
2022/07/06 12:02:18;;;;;;;3.57;1.17;;;;;;;29.84;23.54;98483.44;8412833;28;20230;-78
2022/07/06 12:06:23;;;;;;;5.77;1.53;;;;;;;29.63;23.46;98482.22;8417610;28;20229;-82
2022/07/06 12:10:33;;;;;;;2.03;1.20;;;;;;;28.24;25.16;98484.38;8422369;28;20237;-83
2022/07/06 12:14:38;;;;;;;3.20;1.27;;;;;;;27.98;26.11;98486.38;8420689;28;20245;-84
2022/07/06 12:18:41;;;;;;;4.27;1.20;;;;;;;29.14;24.88;98488.66;8419884;28;20234;-84
2022/07/06 12:22:44;;;;;;;5.73;1.60;;;;;;;29.72;24.65;98474.97;8418628;28;20231;-84
2022/07/06 12:26:47;;;;;;;4.57;1.60;;;;;;;29.57;24.87;98470.41;8418741;28;20227;-83
2022/07/06 12:30:51;;;;;;;4.07;1.17;;;;;;;29.79;23.83;98465.28;8418062;28;20226;-83
2022/07/06 12:35:04;;;;;;;3.83;1.13;;;;;;;30.01;22.45;98455.59;8418583;28;20513;-82
2022/07/06 12:39:11;;;;;;;4.03;1.50;;;;;;;29.52;23.66;98461.28;8418226;28;20232;-82
2022/07/06 12:43:14;;;;;;;6.13;1.30;;;;;;;28.91;24.58;98459.25;8417868;28;20421;-82
2022/07/06 12:47:21;;;;;;;2.03;1.20;;;;;;;28.38;25.25;98456.22;8417881;28;20226;-81
2022/07/06 12:51:25;;;;;;;4.07;1.30;;;;;;;28.19;25.63;98460.06;8417264;28;20233;-82
2022/07/06 12:55:28;;;;;;;4.17;1.40;;;;;;;27.12;27.09;98467.06;8417333;28;20230;-82
2022/07/06 12:59:32;;;;;;;6.07;1.30;;;;;;;28.13;26.68;98457.28;8416741;28;20238;-82
2022/07/06 13:03:40;;;;;;;5.40;1.43;;;;;;;28.15;26.83;98450.75;8417025;28;20240;-83
2022/07/06 13:07:46;;;;;;;6.07;1.57;;;;;;;29.15;24.87;98444.16;8416540;28;20571;-83
2022/07/06 13:11:49;;;;;;;7.37;1.40;;;;;;;28.98;25.56;98446.06;8416991;28;20403;-83
2022/07/06 13:15:52;;;;;;;2.80;1.17;;;;;;;29.12;25.20;98444.50;8414015;28;20241;-82
2022/07/06 13:19:57;;;;;;;3.53;1.33;;;;;;;29.10;24.94;98444.66;8383220;28;20264;-82
2022/07/06 13:23:59;;;;;;;4.40;1.30;;;;;;;28.12;25.97;98447.59;8383021;28;20228;-82
2022/07/06 13:28:02;;;;;;;4.80;1.47;;;;;;;28.65;25.13;98452.38;8383122;28;20417;-83
2022/07/06 13:32:06;;;;;;;2.13;1.10;;;;;;;28.96;24.87;98448.03;8382697;28;20511;-83
2022/07/06 13:36:11;;;;;;;1.80;1.23;;;;;;;28.33;24.36;98439.09;8383784;28;20591;-76
2022/07/06 13:40:14;;;;;;;4.93;1.10;;;;;;;28.29;25.30;98443.91;8412606;28;20233;-79
2022/07/06 13:44:16;;;;;;;1.93;1.07;;;;;;;28.70;25.25;98443.00;8409004;28;20226;-83
2022/07/06 13:48:19;;;;;;;6.07;1.50;;;;;;;28.82;25.00;98438.97;8414836;28;20497;-82
2022/07/06 13:52:23;;;;;;;4.30;1.20;;;;;;;28.76;23.58;98426.34;8414260;28;20238;-80
2022/07/06 13:56:27;;;;;;;4.43;1.10;;;;;;;28.04;24.87;98438.63;8413395;28;20239;-80
2022/07/06 14:00:30;;;;;;;3.90;1.17;;;;;;;27.59;25.36;98428.50;8414619;28;20527;-80
2022/07/06 14:04:33;;;;;;;3.70;1.37;;;;;;;28.52;25.33;98422.78;8414686;28;20593;-79
2022/07/06 14:08:38;;;;;;;4.47;1.30;;;;;;;28.62;24.65;98425.22;8414355;28;20230;-77
2022/07/06 14:12:41;;;;;;;3.20;1.33;;;;;;;28.68;24.18;98427.19;8412179;28;20232;-79
2022/07/06 14:16:44;;;;;;;4.13;1.40;;;;;;;28.95;24.02;98425.06;8414620;28;20234;-79
2022/07/06 14:20:49;;;;;;;1.97;1.10;;;;;;;28.92;24.06;98433.41;8398655;28;20238;-80
2022/07/06 14:24:53;;;;;;;2.33;1.10;;;;;;;28.83;22.33;98422.78;8381091;28;20466;-79
2022/07/06 14:28:56;;;;;;;2.93;1.07;;;;;;;27.96;23.02;98417.34;8391062;28;20234;-80
2022/07/06 14:32:59;;;;;;;2.70;1.00;;;;;;;28.42;23.11;98411.44;8415607;28;20219;-79
2022/07/06 14:37:01;;;;;;;3.97;1.20;;;;;;;28.73;22.37;98416.00;8414343;28;20248;-79
2022/07/06 14:41:05;;;;;;;1.73;0.90;;;;;;;28.72;22.02;98417.03;8413762;28;20257;-79
2022/07/06 14:45:09;;;;;;;3.10;1.10;;;;;;;28.76;21.65;98411.16;8413707;28;20566;-79
2022/07/06 14:49:12;;;;;;;1.33;0.90;;;;;;;28.56;21.01;98407.25;8413719;28;20450;-80
2022/07/06 14:53:22;;;;;;;1.90;1.00;;;;;;;28.28;21.82;98400.47;8413316;28;20238;-79
2022/07/06 14:57:27;;;;;;;6.33;1.10;;;;;;;28.37;21.32;98389.78;8414348;28;20236;-79
2022/07/06 15:01:29;;;;;;;4.47;1.53;;;;;;;28.39;22.24;98382.50;8413264;28;20243;-80
2022/07/06 15:05:33;;;;;;;2.03;1.33;;;;;;;27.93;23.89;98398.22;8413572;28;20306;-78
2022/07/06 15:09:35;;;;;;;4.30;1.20;;;;;;;27.83;23.39;98387.72;8410804;28;20432;-78
2022/07/06 15:13:39;;;;;;;2.90;1.30;;;;;;;27.98;22.85;98383.41;8392910;28;20225;-78
2022/07/06 15:17:42;;;;;;;3.67;1.07;;;;;;;27.75;22.61;98388.56;8411213;28;20293;-79
2022/07/06 15:21:47;;;;;;;2.97;1.07;;;;;;;28.04;22.99;98390.72;8380100;28;20234;-78
2022/07/06 15:25:50;;;;;;;3.17;1.10;;;;;;;27.79;22.31;98391.72;8380568;28;20231;-78
2022/07/06 15:29:59;;;;;;;2.07;1.10;;;;;;;27.99;22.30;98392.25;8379951;28;20234;-78
2022/07/06 15:34:17;;;;;;;1.40;1.00;;;;;;;27.74;22.10;98394.91;8379942;28;20297;-79
2022/07/06 15:38:20;;;;;;;5.33;1.23;;;;;;;27.73;23.68;98382.59;8379891;28;20231;-80
2022/07/06 15:42:24;;;;;;;4.13;1.07;;;;;;;27.77;22.85;98378.59;8385831;28;20232;-79
2022/07/06 15:46:28;;;;;;;3.40;1.20;;;;;;;27.79;23.00;98376.59;8411240;28;20235;-79
2022/07/06 15:50:32;;;;;;;3.03;1.10;;;;;;;27.71;23.46;98384.56;8419017;28;20237;-78
2022/07/06 15:54:35;;;;;;;4.30;1.20;;;;;;;27.43;22.99;98382.25;8418567;28;20539;-79
2022/07/06 15:58:38;;;;;;;2.97;1.10;;;;;;;27.30;22.61;98379.22;8418318;28;20224;-79
2022/07/06 16:02:42;;;;;;;3.73;1.10;;;;;;;27.28;21.99;98370.59;8418403;28;20230;-79
2022/07/06 16:06:45;;;;;;;2.13;1.10;;;;;;;27.34;21.97;98367.31;8418254;28;20234;-76
2022/07/06 16:11:08;;;;;;;10.10;1.60;;;;;;;27.23;21.53;98362.28;8397190;28;20237;-85
2022/07/06 16:15:11;;;;;;;2.13;0.93;;;;;;;27.07;21.24;98361.25;8385506;28;20224;-84
2022/07/06 16:19:15;;;;;;;2.93;1.13;;;;;;;26.80;20.58;98351.72;8384908;28;20240;-87
2022/07/06 16:23:18;;;;;;;3.37;1.50;;;;;;;26.79;22.13;98352.72;8385034;28;20233;-84
2022/07/06 16:27:21;;;;;;;4.07;1.13;;;;;;;26.90;22.63;98356.88;8384984;28;20425;-85
2022/07/06 16:31:24;;;;;;;2.93;1.13;;;;;;;26.82;22.90;98351.56;8384446;28;20237;-81
2022/07/06 16:35:29;;;;;;;3.37;1.40;;;;;;;26.70;22.42;98357.16;8384736;28;20230;-81
2022/07/06 16:39:34;;;;;;;6.30;1.23;;;;;;;26.65;22.86;98354.16;8385236;28;20249;-83
2022/07/06 16:43:37;;;;;;;2.50;1.20;;;;;;;26.59;22.82;98353.94;8386349;28;20231;-83
2022/07/06 16:47:40;;;;;;;2.97;1.17;;;;;;;26.60;23.50;98337.03;8417570;28;20535;-81
2022/07/06 16:51:44;;;;;;;6.20;1.50;;;;;;;26.57;23.32;98345.31;8417420;28;20231;-83
2022/07/06 16:55:47;;;;;;;4.10;1.27;;;;;;;26.30;23.03;98348.00;8417424;28;20223;-88
2022/07/06 16:59:50;;;;;;;2.67;1.27;;;;;;;26.25;23.68;98349.47;8417295;28;20234;-86
2022/07/06 17:03:55;;;;;;;3.03;1.13;;;;;;;26.07;23.78;98346.91;8417020;28;20416;-85
2022/07/06 17:07:59;;;;;;;3.20;1.40;;;;;;;25.84;23.86;98349.22;8416755;28;20238;-85
2022/07/06 17:12:02;;;;;;;4.13;1.10;;;;;;;25.72;24.28;98349.50;8416394;28;20234;-82
2022/07/06 17:16:05;;;;;;;4.20;1.20;;;;;;;25.55;24.75;98352.97;8416407;28;20237;-79
2022/07/06 17:20:09;;;;;;;5.40;1.27;;;;;;;25.34;24.46;98350.66;8416247;28;20539;-80
2022/07/06 17:24:14;;;;;;;2.17;1.07;;;;;;;25.46;25.17;98349.44;8416352;28;20227;-81
2022/07/06 17:28:17;;;;;;;4.83;1.30;;;;;;;25.44;24.89;98354.06;8416372;28;20242;-80
2022/07/06 17:32:20;;;;;;;3.47;1.10;;;;;;;25.42;25.03;98350.75;8415546;28;20233;-81
2022/07/06 17:36:23;;;;;;;5.67;1.30;;;;;;;25.33;25.11;98359.59;8415402;28;20251;-81
2022/07/06 17:40:27;;;;;;;8.90;1.70;;;;;;;25.28;25.53;98364.53;8415109;28;20238;-81
2022/07/06 17:44:30;;;;;;;5.07;1.47;;;;;;;25.05;25.50;98356.16;8415093;28;20426;-80
2022/07/06 17:48:33;;;;;;;2.20;1.27;;;;;;;25.00;25.99;98358.41;8414986;28;20237;-81
2022/07/06 17:52:36;;;;;;;2.90;1.70;;;;;;;24.86;25.95;98357.94;8415097;28;20239;-81
2022/07/06 17:56:40;;;;;;;5.17;1.70;;;;;;;24.88;26.09;98361.28;8414653;28;20229;-81
2022/07/06 18:00:43;;;;;;;6.37;1.53;;;;;;;24.71;26.09;98364.72;8414424;28;20226;-81
2022/07/06 18:04:46;;;;;;;4.27;1.20;;;;;;;24.71;26.48;98367.38;8414249;28;20227;-80
2022/07/06 18:08:49;;;;;;;4.80;1.43;;;;;;;24.58;26.45;98365.09;8412850;28;20238;-81
2022/07/06 18:12:53;;;;;;;4.47;1.10;;;;;;;24.61;26.43;98359.50;8414478;28;20223;-78
2022/07/06 18:16:56;;;;;;;2.23;1.20;;;;;;;24.53;26.87;98357.59;8384555;28;20335;-80
2022/07/06 18:20:59;;;;;;;4.10;1.27;;;;;;;24.52;27.32;98366.53;8381170;28;20233;-81
2022/07/06 18:25:02;;;;;;;7.10;1.60;;;;;;;24.51;27.50;98370.13;8381295;28;20233;-80
2022/07/06 18:29:06;;;;;;;2.83;1.50;;;;;;;24.51;27.91;98366.63;8380741;28;20232;-81
2022/07/06 18:33:09;;;;;;;2.90;1.47;;;;;;;24.31;27.51;98369.38;8380860;28;20221;-82
2022/07/06 18:37:12;;;;;;;3.10;1.40;;;;;;;24.25;27.21;98377.03;8380641;28;20290;-81
2022/07/06 18:41:15;;;;;;;3.00;1.50;;;;;;;24.30;27.32;98380.09;8380683;28;20236;-81
2022/07/06 18:45:19;;;;;;;3.00;1.47;;;;;;;24.26;27.91;98379.56;8395690;28;20268;-81
2022/07/06 18:49:22;;;;;;;5.70;1.67;;;;;;;24.15;27.67;98369.97;8412868;28;20242;-80
2022/07/06 18:53:25;;;;;;;2.17;1.13;;;;;;;24.21;27.76;98381.78;8413521;28;20222;-80
2022/07/06 18:57:28;;;;;;;5.17;1.63;;;;;;;24.20;27.84;98378.31;8410140;28;20229;-81
2022/07/06 19:01:33;;;;;;;3.03;1.20;;;;;;;24.04;27.95;98379.91;8380629;28;20233;-81
2022/07/06 19:05:36;;;;;;;3.83;1.60;;;;;;;24.07;27.84;98380.44;8383180;28;20237;-81
2022/07/06 19:09:39;;;;;;;3.70;1.50;;;;;;;24.04;28.17;98379.91;8384596;28;20240;-81
2022/07/06 19:13:42;;;;;;;5.00;1.60;;;;;;;24.07;28.20;98384.91;8392270;28;20246;-81
2022/07/06 19:17:49;;;;;;;3.47;1.73;;;;;;;23.95;28.05;98379.78;8422163;28;20235;-81